sensor_id;sensor_type;location;lat;lon;timestamp;P1;durP1;ratioP1;P2;durP2;ratioP2
58123;SDS011;46725;48.068;20.832;2022-11-20T00:00:44;44.65;;;18.25;;
58123;SDS011;46725;48.068;20.832;2022-11-20T00:03:10;39.90;;;17.70;;
58123;SDS011;46725;48.068;20.832;2022-11-20T00:05:36;33.63;;;14.98;;
58123;SDS011;46725;48.068;20.832;2022-11-20T00:08:02;39.55;;;15.73;;
58123;SDS011;46725;48.068;20.832;2022-11-20T00:10:28;38.22;;;15.38;;
58123;SDS011;46725;48.068;20.832;2022-11-20T00:12:54;35.53;;;15.35;;
58123;SDS011;46725;48.068;20.832;2022-11-20T00:15:20;38.60;;;16.95;;
58123;SDS011;46725;48.068;20.832;2022-11-20T00:17:46;40.28;;;17.52;;
58123;SDS011;46725;48.068;20.832;2022-11-20T00:20:12;45.88;;;17.95;;
58123;SDS011;46725;48.068;20.832;2022-11-20T00:22:38;41.83;;;17.65;;
58123;SDS011;46725;48.068;20.832;2022-11-20T00:25:04;38.78;;;16.60;;
58123;SDS011;46725;48.068;20.832;2022-11-20T00:27:31;36.15;;;16.35;;
58123;SDS011;46725;48.068;20.832;2022-11-20T00:29:57;42.20;;;18.13;;
58123;SDS011;46725;48.068;20.832;2022-11-20T00:32:23;40.17;;;17.45;;
58123;SDS011;46725;48.068;20.832;2022-11-20T00:34:49;35.38;;;15.93;;
58123;SDS011;46725;48.068;20.832;2022-11-20T00:37:15;35.45;;;15.35;;
58123;SDS011;46725;48.068;20.832;2022-11-20T00:39:41;31.48;;;14.63;;
58123;SDS011;46725;48.068;20.832;2022-11-20T00:42:07;39.28;;;16.60;;
58123;SDS011;46725;48.068;20.832;2022-11-20T00:44:33;42.33;;;17.02;;
58123;SDS011;46725;48.068;20.832;2022-11-20T00:46:59;40.95;;;18.02;;
58123;SDS011;46725;48.068;20.832;2022-11-20T00:49:25;39.10;;;16.95;;
58123;SDS011;46725;48.068;20.832;2022-11-20T00:51:51;39.47;;;17.30;;
58123;SDS011;46725;48.068;20.832;2022-11-20T00:54:17;40.58;;;17.15;;
58123;SDS011;46725;48.068;20.832;2022-11-20T00:56:43;39.63;;;16.67;;
58123;SDS011;46725;48.068;20.832;2022-11-20T00:59:09;39.08;;;17.45;;
58123;SDS011;46725;48.068;20.832;2022-11-20T01:01:36;39.50;;;16.38;;
58123;SDS011;46725;48.068;20.832;2022-11-20T01:04:02;45.35;;;17.38;;
58123;SDS011;46725;48.068;20.832;2022-11-20T01:06:29;39.53;;;16.20;;
58123;SDS011;46725;48.068;20.832;2022-11-20T01:08:56;43.00;;;17.27;;
58123;SDS011;46725;48.068;20.832;2022-11-20T01:11:24;45.85;;;16.80;;
58123;SDS011;46725;48.068;20.832;2022-11-20T01:13:51;40.70;;;16.98;;
58123;SDS011;46725;48.068;20.832;2022-11-20T01:16:18;39.72;;;16.95;;
58123;SDS011;46725;48.068;20.832;2022-11-20T01:18:45;40.30;;;15.23;;
58123;SDS011;46725;48.068;20.832;2022-11-20T01:21:22;42.22;;;17.42;;
58123;SDS011;46725;48.068;20.832;2022-11-20T01:23:48;39.17;;;16.55;;
58123;SDS011;46725;48.068;20.832;2022-11-20T01:26:19;39.70;;;17.63;;
58123;SDS011;46725;48.068;20.832;2022-11-20T01:28:45;40.88;;;17.70;;
58123;SDS011;46725;48.068;20.832;2022-11-20T01:31:13;36.65;;;16.63;;
58123;SDS011;46725;48.068;20.832;2022-11-20T01:33:39;42.88;;;18.73;;
58123;SDS011;46725;48.068;20.832;2022-11-20T01:36:06;39.92;;;16.55;;
58123;SDS011;46725;48.068;20.832;2022-11-20T01:38:33;41.30;;;17.27;;
58123;SDS011;46725;48.068;20.832;2022-11-20T01:40:59;39.47;;;16.20;;
58123;SDS011;46725;48.068;20.832;2022-11-20T01:43:25;31.27;;;13.65;;
58123;SDS011;46725;48.068;20.832;2022-11-20T01:48:18;36.63;;;15.55;;
58123;SDS011;46725;48.068;20.832;2022-11-20T01:50:45;41.17;;;17.75;;
58123;SDS011;46725;48.068;20.832;2022-11-20T01:53:13;33.90;;;15.18;;
58123;SDS011;46725;48.068;20.832;2022-11-20T01:55:44;37.00;;;16.20;;
58123;SDS011;46725;48.068;20.832;2022-11-20T01:58:12;36.95;;;16.27;;
58123;SDS011;46725;48.068;20.832;2022-11-20T02:00:38;33.25;;;15.73;;
58123;SDS011;46725;48.068;20.832;2022-11-20T02:03:07;41.60;;;16.48;;
58123;SDS011;46725;48.068;20.832;2022-11-20T02:08:25;39.63;;;16.92;;
58123;SDS011;46725;48.068;20.832;2022-11-20T02:10:51;41.72;;;17.30;;
58123;SDS011;46725;48.068;20.832;2022-11-20T02:13:17;42.78;;;18.77;;
58123;SDS011;46725;48.068;20.832;2022-11-20T02:16:02;36.15;;;15.90;;
58123;SDS011;46725;48.068;20.832;2022-11-20T02:18:29;37.58;;;16.75;;
58123;SDS011;46725;48.068;20.832;2022-11-20T02:20:59;43.38;;;18.65;;
58123;SDS011;46725;48.068;20.832;2022-11-20T02:23:36;41.88;;;17.40;;
58123;SDS011;46725;48.068;20.832;2022-11-20T02:26:04;38.35;;;18.02;;
58123;SDS011;46725;48.068;20.832;2022-11-20T02:28:32;43.47;;;17.80;;
58123;SDS011;46725;48.068;20.832;2022-11-20T02:30:58;39.92;;;16.15;;
58123;SDS011;46725;48.068;20.832;2022-11-20T02:33:24;36.25;;;15.43;;
58123;SDS011;46725;48.068;20.832;2022-11-20T02:35:50;38.97;;;15.48;;
58123;SDS011;46725;48.068;20.832;2022-11-20T02:38:16;40.55;;;15.55;;
58123;SDS011;46725;48.068;20.832;2022-11-20T02:40:43;33.05;;;14.02;;
58123;SDS011;46725;48.068;20.832;2022-11-20T02:43:09;37.55;;;15.18;;
58123;SDS011;46725;48.068;20.832;2022-11-20T02:45:35;32.50;;;13.98;;
58123;SDS011;46725;48.068;20.832;2022-11-20T02:48:02;36.15;;;16.15;;
58123;SDS011;46725;48.068;20.832;2022-11-20T02:50:28;36.47;;;15.30;;
58123;SDS011;46725;48.068;20.832;2022-11-20T02:52:54;37.03;;;15.02;;
58123;SDS011;46725;48.068;20.832;2022-11-20T02:55:20;34.92;;;14.95;;
58123;SDS011;46725;48.068;20.832;2022-11-20T02:57:46;33.58;;;15.15;;
58123;SDS011;46725;48.068;20.832;2022-11-20T03:00:12;31.10;;;14.15;;
58123;SDS011;46725;48.068;20.832;2022-11-20T03:02:38;32.33;;;15.35;;
58123;SDS011;46725;48.068;20.832;2022-11-20T03:05:04;32.53;;;14.68;;
58123;SDS011;46725;48.068;20.832;2022-11-20T03:07:30;35.90;;;14.93;;
58123;SDS011;46725;48.068;20.832;2022-11-20T03:09:57;33.05;;;13.75;;
58123;SDS011;46725;48.068;20.832;2022-11-20T03:12:23;33.97;;;14.80;;
58123;SDS011;46725;48.068;20.832;2022-11-20T03:14:49;33.00;;;14.00;;
58123;SDS011;46725;48.068;20.832;2022-11-20T03:17:15;31.40;;;13.70;;
58123;SDS011;46725;48.068;20.832;2022-11-20T03:19:41;29.70;;;13.45;;
58123;SDS011;46725;48.068;20.832;2022-11-20T03:22:08;31.95;;;13.30;;
58123;SDS011;46725;48.068;20.832;2022-11-20T03:24:34;30.70;;;13.40;;
58123;SDS011;46725;48.068;20.832;2022-11-20T03:27:00;35.25;;;14.90;;
58123;SDS011;46725;48.068;20.832;2022-11-20T03:29:26;32.28;;;13.32;;
58123;SDS011;46725;48.068;20.832;2022-11-20T03:31:52;32.13;;;13.05;;
58123;SDS011;46725;48.068;20.832;2022-11-20T03:34:18;38.42;;;15.80;;
58123;SDS011;46725;48.068;20.832;2022-11-20T03:36:44;34.08;;;14.10;;
58123;SDS011;46725;48.068;20.832;2022-11-20T03:39:10;34.67;;;13.27;;
58123;SDS011;46725;48.068;20.832;2022-11-20T03:41:37;31.02;;;14.35;;
58123;SDS011;46725;48.068;20.832;2022-11-20T03:44:04;38.05;;;15.02;;
58123;SDS011;46725;48.068;20.832;2022-11-20T03:46:31;32.42;;;14.65;;
58123;SDS011;46725;48.068;20.832;2022-11-20T03:48:57;31.15;;;13.65;;
58123;SDS011;46725;48.068;20.832;2022-11-20T03:51:25;30.35;;;13.82;;
58123;SDS011;46725;48.068;20.832;2022-11-20T03:53:52;32.00;;;14.10;;
58123;SDS011;46725;48.068;20.832;2022-11-20T03:56:19;33.33;;;13.85;;
58123;SDS011;46725;48.068;20.832;2022-11-20T03:58:46;29.95;;;12.93;;
58123;SDS011;46725;48.068;20.832;2022-11-20T04:01:13;31.63;;;13.40;;
58123;SDS011;46725;48.068;20.832;2022-11-20T04:03:40;28.10;;;12.57;;
58123;SDS011;46725;48.068;20.832;2022-11-20T04:06:16;32.63;;;12.73;;
58123;SDS011;46725;48.068;20.832;2022-11-20T04:08:42;27.52;;;12.05;;
58123;SDS011;46725;48.068;20.832;2022-11-20T04:11:19;28.90;;;12.70;;
58123;SDS011;46725;48.068;20.832;2022-11-20T04:13:46;30.48;;;12.57;;
58123;SDS011;46725;48.068;20.832;2022-11-20T04:16:13;28.75;;;14.05;;
58123;SDS011;46725;48.068;20.832;2022-11-20T04:18:39;34.40;;;15.57;;
58123;SDS011;46725;48.068;20.832;2022-11-20T04:21:05;27.70;;;12.07;;
58123;SDS011;46725;48.068;20.832;2022-11-20T04:23:31;26.48;;;12.05;;
58123;SDS011;46725;48.068;20.832;2022-11-20T04:26:01;33.50;;;13.73;;
58123;SDS011;46725;48.068;20.832;2022-11-20T04:28:27;30.58;;;13.85;;
58123;SDS011;46725;48.068;20.832;2022-11-20T04:30:53;28.50;;;13.10;;
58123;SDS011;46725;48.068;20.832;2022-11-20T04:33:19;30.55;;;12.45;;
58123;SDS011;46725;48.068;20.832;2022-11-20T04:35:46;29.27;;;10.98;;
58123;SDS011;46725;48.068;20.832;2022-11-20T04:38:13;28.27;;;12.25;;
58123;SDS011;46725;48.068;20.832;2022-11-20T04:40:39;30.95;;;12.82;;
58123;SDS011;46725;48.068;20.832;2022-11-20T04:43:05;31.48;;;13.02;;
58123;SDS011;46725;48.068;20.832;2022-11-20T04:45:31;26.60;;;11.85;;
58123;SDS011;46725;48.068;20.832;2022-11-20T04:47:57;32.05;;;13.63;;
58123;SDS011;46725;48.068;20.832;2022-11-20T04:50:23;29.77;;;13.02;;
58123;SDS011;46725;48.068;20.832;2022-11-20T04:52:49;28.25;;;12.90;;
58123;SDS011;46725;48.068;20.832;2022-11-20T04:55:15;30.13;;;13.38;;
58123;SDS011;46725;48.068;20.832;2022-11-20T04:57:41;33.15;;;13.68;;
58123;SDS011;46725;48.068;20.832;2022-11-20T05:00:07;32.08;;;12.80;;
58123;SDS011;46725;48.068;20.832;2022-11-20T05:02:33;30.67;;;12.85;;
58123;SDS011;46725;48.068;20.832;2022-11-20T05:04:59;33.78;;;13.18;;
58123;SDS011;46725;48.068;20.832;2022-11-20T05:07:25;31.23;;;13.38;;
58123;SDS011;46725;48.068;20.832;2022-11-20T05:09:51;38.75;;;16.60;;
58123;SDS011;46725;48.068;20.832;2022-11-20T05:12:17;42.40;;;15.13;;
58123;SDS011;46725;48.068;20.832;2022-11-20T05:14:44;31.83;;;14.27;;
58123;SDS011;46725;48.068;20.832;2022-11-20T05:17:10;35.63;;;14.30;;
58123;SDS011;46725;48.068;20.832;2022-11-20T05:19:37;31.60;;;13.82;;
58123;SDS011;46725;48.068;20.832;2022-11-20T05:22:03;39.50;;;16.98;;
58123;SDS011;46725;48.068;20.832;2022-11-20T05:24:30;36.50;;;14.80;;
58123;SDS011;46725;48.068;20.832;2022-11-20T05:26:56;35.03;;;15.55;;
58123;SDS011;46725;48.068;20.832;2022-11-20T05:29:22;33.00;;;14.90;;
58123;SDS011;46725;48.068;20.832;2022-11-20T05:31:48;31.33;;;14.98;;
58123;SDS011;46725;48.068;20.832;2022-11-20T05:34:14;33.83;;;14.65;;
58123;SDS011;46725;48.068;20.832;2022-11-20T05:36:40;31.63;;;14.07;;
58123;SDS011;46725;48.068;20.832;2022-11-20T05:39:06;36.00;;;14.38;;
58123;SDS011;46725;48.068;20.832;2022-11-20T05:41:32;33.28;;;15.23;;
58123;SDS011;46725;48.068;20.832;2022-11-20T05:43:58;39.70;;;16.00;;
58123;SDS011;46725;48.068;20.832;2022-11-20T05:46:24;34.00;;;14.15;;
58123;SDS011;46725;48.068;20.832;2022-11-20T05:48:50;34.08;;;13.98;;
58123;SDS011;46725;48.068;20.832;2022-11-20T05:51:17;38.05;;;16.20;;
58123;SDS011;46725;48.068;20.832;2022-11-20T05:53:44;43.00;;;16.50;;
58123;SDS011;46725;48.068;20.832;2022-11-20T05:56:11;38.08;;;15.25;;
58123;SDS011;46725;48.068;20.832;2022-11-20T05:58:38;35.15;;;15.48;;
58123;SDS011;46725;48.068;20.832;2022-11-20T06:01:09;38.03;;;15.02;;
58123;SDS011;46725;48.068;20.832;2022-11-20T06:03:35;37.05;;;15.40;;
58123;SDS011;46725;48.068;20.832;2022-11-20T06:06:02;37.13;;;15.98;;
58123;SDS011;46725;48.068;20.832;2022-11-20T06:08:28;35.63;;;14.75;;
58123;SDS011;46725;48.068;20.832;2022-11-20T06:10:55;39.83;;;15.85;;
58123;SDS011;46725;48.068;20.832;2022-11-20T06:13:21;30.85;;;14.98;;
58123;SDS011;46725;48.068;20.832;2022-11-20T06:15:50;36.95;;;14.75;;
58123;SDS011;46725;48.068;20.832;2022-11-20T06:18:17;34.53;;;14.50;;
58123;SDS011;46725;48.068;20.832;2022-11-20T06:20:44;33.30;;;14.88;;
58123;SDS011;46725;48.068;20.832;2022-11-20T06:23:10;41.05;;;17.20;;
58123;SDS011;46725;48.068;20.832;2022-11-20T06:25:39;36.30;;;16.08;;
58123;SDS011;46725;48.068;20.832;2022-11-20T06:28:05;36.75;;;15.55;;
58123;SDS011;46725;48.068;20.832;2022-11-20T06:30:31;35.30;;;15.52;;
58123;SDS011;46725;48.068;20.832;2022-11-20T06:32:58;34.58;;;14.60;;
58123;SDS011;46725;48.068;20.832;2022-11-20T06:35:24;34.58;;;13.10;;
58123;SDS011;46725;48.068;20.832;2022-11-20T06:37:50;34.63;;;14.05;;
58123;SDS011;46725;48.068;20.832;2022-11-20T06:40:16;31.55;;;14.48;;
58123;SDS011;46725;48.068;20.832;2022-11-20T06:42:42;35.70;;;14.63;;
58123;SDS011;46725;48.068;20.832;2022-11-20T06:45:08;32.35;;;14.32;;
58123;SDS011;46725;48.068;20.832;2022-11-20T06:47:34;30.88;;;14.20;;
58123;SDS011;46725;48.068;20.832;2022-11-20T06:50:00;35.17;;;15.32;;
58123;SDS011;46725;48.068;20.832;2022-11-20T06:52:26;31.98;;;13.98;;
58123;SDS011;46725;48.068;20.832;2022-11-20T06:54:52;36.58;;;14.45;;
58123;SDS011;46725;48.068;20.832;2022-11-20T06:57:18;40.25;;;18.10;;
58123;SDS011;46725;48.068;20.832;2022-11-20T06:59:44;40.95;;;15.77;;
58123;SDS011;46725;48.068;20.832;2022-11-20T07:02:11;34.90;;;15.98;;
58123;SDS011;46725;48.068;20.832;2022-11-20T07:04:37;34.17;;;15.15;;
58123;SDS011;46725;48.068;20.832;2022-11-20T07:07:03;40.42;;;16.60;;
58123;SDS011;46725;48.068;20.832;2022-11-20T07:09:31;41.40;;;17.00;;
58123;SDS011;46725;48.068;20.832;2022-11-20T07:11:57;38.70;;;16.75;;
58123;SDS011;46725;48.068;20.832;2022-11-20T07:14:23;41.55;;;14.90;;
58123;SDS011;46725;48.068;20.832;2022-11-20T07:16:49;33.92;;;14.80;;
58123;SDS011;46725;48.068;20.832;2022-11-20T07:19:15;38.53;;;16.73;;
58123;SDS011;46725;48.068;20.832;2022-11-20T07:21:41;40.03;;;15.65;;
58123;SDS011;46725;48.068;20.832;2022-11-20T07:24:07;39.85;;;14.93;;
58123;SDS011;46725;48.068;20.832;2022-11-20T07:26:33;55.08;;;21.77;;
58123;SDS011;46725;48.068;20.832;2022-11-20T07:28:59;43.97;;;18.55;;
58123;SDS011;46725;48.068;20.832;2022-11-20T07:31:25;45.30;;;19.17;;
58123;SDS011;46725;48.068;20.832;2022-11-20T07:33:51;38.85;;;17.10;;
58123;SDS011;46725;48.068;20.832;2022-11-20T07:36:17;39.80;;;14.75;;
58123;SDS011;46725;48.068;20.832;2022-11-20T07:38:43;32.15;;;13.32;;
58123;SDS011;46725;48.068;20.832;2022-11-20T07:41:09;37.78;;;15.45;;
58123;SDS011;46725;48.068;20.832;2022-11-20T07:43:35;37.47;;;15.63;;
58123;SDS011;46725;48.068;20.832;2022-11-20T07:46:01;33.80;;;14.98;;
58123;SDS011;46725;48.068;20.832;2022-11-20T07:48:28;35.22;;;14.60;;
58123;SDS011;46725;48.068;20.832;2022-11-20T07:50:57;26.90;;;12.35;;
58123;SDS011;46725;48.068;20.832;2022-11-20T07:53:24;34.85;;;15.02;;
58123;SDS011;46725;48.068;20.832;2022-11-20T07:55:50;21.80;;;10.43;;
58123;SDS011;46725;48.068;20.832;2022-11-20T07:58:19;28.40;;;13.77;;
58123;SDS011;46725;48.068;20.832;2022-11-20T08:00:46;27.83;;;13.55;;
58123;SDS011;46725;48.068;20.832;2022-11-20T08:03:12;27.98;;;12.55;;
58123;SDS011;46725;48.068;20.832;2022-11-20T08:05:38;24.42;;;11.55;;
58123;SDS011;46725;48.068;20.832;2022-11-20T08:08:04;26.38;;;11.40;;
58123;SDS011;46725;48.068;20.832;2022-11-20T08:10:32;28.10;;;12.35;;
58123;SDS011;46725;48.068;20.832;2022-11-20T08:12:58;29.95;;;13.68;;
58123;SDS011;46725;48.068;20.832;2022-11-20T08:15:47;29.73;;;13.27;;
58123;SDS011;46725;48.068;20.832;2022-11-20T08:18:13;25.33;;;12.35;;
58123;SDS011;46725;48.068;20.832;2022-11-20T08:20:39;24.20;;;10.55;;
58123;SDS011;46725;48.068;20.832;2022-11-20T08:23:05;25.73;;;11.38;;
58123;SDS011;46725;48.068;20.832;2022-11-20T08:25:32;36.13;;;13.05;;
58123;SDS011;46725;48.068;20.832;2022-11-20T08:27:59;24.85;;;11.07;;
58123;SDS011;46725;48.068;20.832;2022-11-20T08:30:26;27.63;;;12.57;;
58123;SDS011;46725;48.068;20.832;2022-11-20T08:32:52;30.42;;;13.10;;
58123;SDS011;46725;48.068;20.832;2022-11-20T08:35:19;27.98;;;12.68;;
58123;SDS011;46725;48.068;20.832;2022-11-20T08:37:46;31.40;;;14.38;;
58123;SDS011;46725;48.068;20.832;2022-11-20T08:40:12;33.47;;;14.95;;
58123;SDS011;46725;48.068;20.832;2022-11-20T08:42:48;33.58;;;12.88;;
58123;SDS011;46725;48.068;20.832;2022-11-20T08:45:15;27.75;;;12.70;;
58123;SDS011;46725;48.068;20.832;2022-11-20T08:47:42;28.88;;;13.90;;
58123;SDS011;46725;48.068;20.832;2022-11-20T08:50:11;24.35;;;10.68;;
58123;SDS011;46725;48.068;20.832;2022-11-20T08:52:38;28.60;;;12.98;;
58123;SDS011;46725;48.068;20.832;2022-11-20T08:55:04;34.88;;;15.38;;
58123;SDS011;46725;48.068;20.832;2022-11-20T08:57:36;35.78;;;14.30;;
58123;SDS011;46725;48.068;20.832;2022-11-20T09:02:28;28.75;;;13.25;;
58123;SDS011;46725;48.068;20.832;2022-11-20T09:04:54;36.60;;;15.07;;
58123;SDS011;46725;48.068;20.832;2022-11-20T09:07:20;35.72;;;15.70;;
58123;SDS011;46725;48.068;20.832;2022-11-20T09:09:47;36.45;;;17.10;;
58123;SDS011;46725;48.068;20.832;2022-11-20T09:12:13;41.25;;;16.48;;
58123;SDS011;46725;48.068;20.832;2022-11-20T09:14:39;37.58;;;16.70;;
58123;SDS011;46725;48.068;20.832;2022-11-20T09:17:05;36.47;;;16.58;;
58123;SDS011;46725;48.068;20.832;2022-11-20T09:19:32;43.05;;;18.38;;
58123;SDS011;46725;48.068;20.832;2022-11-20T09:21:58;38.33;;;18.23;;
58123;SDS011;46725;48.068;20.832;2022-11-20T09:24:25;39.67;;;16.75;;
58123;SDS011;46725;48.068;20.832;2022-11-20T09:26:51;38.67;;;17.38;;
58123;SDS011;46725;48.068;20.832;2022-11-20T09:29:17;38.85;;;16.75;;
58123;SDS011;46725;48.068;20.832;2022-11-20T09:31:43;36.53;;;16.48;;
58123;SDS011;46725;48.068;20.832;2022-11-20T09:34:09;38.90;;;17.55;;
58123;SDS011;46725;48.068;20.832;2022-11-20T09:36:35;34.00;;;16.50;;
58123;SDS011;46725;48.068;20.832;2022-11-20T09:39:01;32.72;;;16.17;;
58123;SDS011;46725;48.068;20.832;2022-11-20T09:46:21;33.53;;;15.55;;
58123;SDS011;46725;48.068;20.832;2022-11-20T09:56:28;31.30;;;15.10;;
58123;SDS011;46725;48.068;20.832;2022-11-20T09:58:55;41.75;;;16.85;;
58123;SDS011;46725;48.068;20.832;2022-11-20T10:01:25;37.95;;;17.98;;
58123;SDS011;46725;48.068;20.832;2022-11-20T10:04:06;34.25;;;16.63;;
58123;SDS011;46725;48.068;20.832;2022-11-20T10:06:39;33.13;;;15.35;;
58123;SDS011;46725;48.068;20.832;2022-11-20T10:14:31;36.35;;;16.38;;
58123;SDS011;46725;48.068;20.832;2022-11-20T10:17:16;32.38;;;16.15;;
58123;SDS011;46725;48.068;20.832;2022-11-20T10:19:54;37.17;;;17.38;;
58123;SDS011;46725;48.068;20.832;2022-11-20T10:22:51;32.42;;;15.27;;
58123;SDS011;46725;48.068;20.832;2022-11-20T10:25:21;29.80;;;15.30;;
58123;SDS011;46725;48.068;20.832;2022-11-20T10:30:19;31.10;;;15.65;;
58123;SDS011;46725;48.068;20.832;2022-11-20T10:32:47;31.73;;;15.82;;
58123;SDS011;46725;48.068;20.832;2022-11-20T10:37:47;34.53;;;16.45;;
58123;SDS011;46725;48.068;20.832;2022-11-20T10:43:01;40.33;;;17.42;;
58123;SDS011;46725;48.068;20.832;2022-11-20T10:48:18;31.30;;;15.35;;
58123;SDS011;46725;48.068;20.832;2022-11-20T10:50:53;34.60;;;16.05;;
58123;SDS011;46725;48.068;20.832;2022-11-20T10:53:33;31.20;;;15.68;;
58123;SDS011;46725;48.068;20.832;2022-11-20T10:56:07;29.30;;;14.23;;
58123;SDS011;46725;48.068;20.832;2022-11-20T11:01:14;30.55;;;14.00;;
58123;SDS011;46725;48.068;20.832;2022-11-20T11:03:41;33.00;;;14.95;;
58123;SDS011;46725;48.068;20.832;2022-11-20T11:06:14;35.78;;;15.40;;
58123;SDS011;46725;48.068;20.832;2022-11-20T11:08:43;35.75;;;16.45;;
58123;SDS011;46725;48.068;20.832;2022-11-20T11:11:22;34.60;;;16.90;;
58123;SDS011;46725;48.068;20.832;2022-11-20T11:13:49;36.55;;;17.65;;
58123;SDS011;46725;48.068;20.832;2022-11-20T11:16:19;38.05;;;18.05;;
58123;SDS011;46725;48.068;20.832;2022-11-20T11:18:45;43.28;;;20.48;;
58123;SDS011;46725;48.068;20.832;2022-11-20T11:21:11;41.40;;;19.77;;
58123;SDS011;46725;48.068;20.832;2022-11-20T11:23:39;33.63;;;16.40;;
58123;SDS011;46725;48.068;20.832;2022-11-20T11:26:06;37.42;;;16.63;;
58123;SDS011;46725;48.068;20.832;2022-11-20T11:28:33;32.00;;;15.52;;
58123;SDS011;46725;48.068;20.832;2022-11-20T11:30:59;33.65;;;15.57;;
58123;SDS011;46725;48.068;20.832;2022-11-20T11:33:29;46.00;;;19.40;;
58123;SDS011;46725;48.068;20.832;2022-11-20T11:35:56;38.28;;;17.52;;
58123;SDS011;46725;48.068;20.832;2022-11-20T11:38:28;31.73;;;14.82;;
58123;SDS011;46725;48.068;20.832;2022-11-20T11:40:55;30.17;;;14.02;;
58123;SDS011;46725;48.068;20.832;2022-11-20T11:43:23;22.95;;;11.68;;
58123;SDS011;46725;48.068;20.832;2022-11-20T11:46:21;31.70;;;12.63;;
58123;SDS011;46725;48.068;20.832;2022-11-20T11:51:21;28.20;;;13.18;;
58123;SDS011;46725;48.068;20.832;2022-11-20T11:53:47;25.75;;;12.52;;
58123;SDS011;46725;48.068;20.832;2022-11-20T11:56:13;32.25;;;14.80;;
58123;SDS011;46725;48.068;20.832;2022-11-20T12:06:26;34.95;;;15.98;;
58123;SDS011;46725;48.068;20.832;2022-11-20T12:08:56;32.13;;;15.50;;
58123;SDS011;46725;48.068;20.832;2022-11-20T12:11:24;34.47;;;16.02;;
58123;SDS011;46725;48.068;20.832;2022-11-20T12:14:09;30.63;;;14.75;;
58123;SDS011;46725;48.068;20.832;2022-11-20T12:16:37;24.83;;;13.53;;
58123;SDS011;46725;48.068;20.832;2022-11-20T12:19:08;27.75;;;13.25;;
58123;SDS011;46725;48.068;20.832;2022-11-20T12:34:35;28.77;;;14.23;;
58123;SDS011;46725;48.068;20.832;2022-11-20T12:39:43;23.33;;;11.48;;
58123;SDS011;46725;48.068;20.832;2022-11-20T12:57:50;34.75;;;16.45;;
58123;SDS011;46725;48.068;20.832;2022-11-20T13:00:20;31.95;;;14.98;;
58123;SDS011;46725;48.068;20.832;2022-11-20T13:02:58;36.58;;;16.30;;
58123;SDS011;46725;48.068;20.832;2022-11-20T13:08:15;33.13;;;15.65;;
58123;SDS011;46725;48.068;20.832;2022-11-20T13:10:43;35.83;;;17.30;;
58123;SDS011;46725;48.068;20.832;2022-11-20T13:18:10;32.72;;;17.02;;
58123;SDS011;46725;48.068;20.832;2022-11-20T13:20:41;36.42;;;17.48;;
58123;SDS011;46725;48.068;20.832;2022-11-20T13:23:07;40.85;;;20.33;;
58123;SDS011;46725;48.068;20.832;2022-11-20T13:25:34;44.85;;;22.17;;
58123;SDS011;46725;48.068;20.832;2022-11-20T13:28:45;44.75;;;22.92;;
58123;SDS011;46725;48.068;20.832;2022-11-20T13:30:53;45.13;;;23.85;;
58123;SDS011;46725;48.068;20.832;2022-11-20T13:35:59;41.90;;;20.48;;
58123;SDS011;46725;48.068;20.832;2022-11-20T13:38:26;39.80;;;19.42;;
58123;SDS011;46725;48.068;20.832;2022-11-20T13:43:21;35.78;;;17.42;;
58123;SDS011;46725;48.068;20.832;2022-11-20T13:45:59;39.67;;;19.70;;
58123;SDS011;46725;48.068;20.832;2022-11-20T13:48:26;39.15;;;17.83;;
58123;SDS011;46725;48.068;20.832;2022-11-20T13:59:13;39.63;;;20.75;;
58123;SDS011;46725;48.068;20.832;2022-11-20T14:01:42;40.97;;;19.45;;
58123;SDS011;46725;48.068;20.832;2022-11-20T14:04:13;40.03;;;19.98;;
58123;SDS011;46725;48.068;20.832;2022-11-20T14:06:42;56.67;;;26.45;;
58123;SDS011;46725;48.068;20.832;2022-11-20T14:09:10;57.05;;;28.00;;
58123;SDS011;46725;48.068;20.832;2022-11-20T14:11:45;48.85;;;24.15;;
58123;SDS011;46725;48.068;20.832;2022-11-20T14:14:18;50.75;;;24.02;;
58123;SDS011;46725;48.068;20.832;2022-11-20T14:16:45;52.10;;;22.60;;
58123;SDS011;46725;48.068;20.832;2022-11-20T14:19:30;37.47;;;18.70;;
58123;SDS011;46725;48.068;20.832;2022-11-20T14:22:08;40.35;;;20.23;;
58123;SDS011;46725;48.068;20.832;2022-11-20T14:24:34;43.97;;;23.50;;
58123;SDS011;46725;48.068;20.832;2022-11-20T14:27:00;52.53;;;27.02;;
58123;SDS011;46725;48.068;20.832;2022-11-20T14:29:34;63.03;;;30.58;;
58123;SDS011;46725;48.068;20.832;2022-11-20T14:32:00;72.10;;;32.25;;
58123;SDS011;46725;48.068;20.832;2022-11-20T14:34:31;55.13;;;27.92;;
58123;SDS011;46725;48.068;20.832;2022-11-20T14:37:01;60.78;;;29.00;;
58123;SDS011;46725;48.068;20.832;2022-11-20T14:39:31;74.47;;;35.50;;
58123;SDS011;46725;48.068;20.832;2022-11-20T14:41:58;68.60;;;34.75;;
58123;SDS011;46725;48.068;20.832;2022-11-20T14:44:29;61.95;;;30.08;;
58123;SDS011;46725;48.068;20.832;2022-11-20T14:46:56;58.13;;;26.87;;
58123;SDS011;46725;48.068;20.832;2022-11-20T14:49:22;56.78;;;27.40;;
58123;SDS011;46725;48.068;20.832;2022-11-20T14:51:57;66.60;;;31.90;;
58123;SDS011;46725;48.068;20.832;2022-11-20T14:54:24;66.03;;;30.73;;
58123;SDS011;46725;48.068;20.832;2022-11-20T14:57:01;55.33;;;28.77;;
58123;SDS011;46725;48.068;20.832;2022-11-20T14:59:28;69.40;;;34.53;;
58123;SDS011;46725;48.068;20.832;2022-11-20T15:01:56;178.20;;;71.35;;
58123;SDS011;46725;48.068;20.832;2022-11-20T15:04:22;129.82;;;58.42;;
58123;SDS011;46725;48.068;20.832;2022-11-20T15:06:49;81.25;;;36.63;;
58123;SDS011;46725;48.068;20.832;2022-11-20T15:09:16;72.10;;;32.55;;
58123;SDS011;46725;48.068;20.832;2022-11-20T15:11:50;60.53;;;28.95;;
58123;SDS011;46725;48.068;20.832;2022-11-20T15:14:17;61.20;;;29.48;;
58123;SDS011;46725;48.068;20.832;2022-11-20T15:16:43;62.97;;;31.23;;
58123;SDS011;46725;48.068;20.832;2022-11-20T15:19:16;68.55;;;32.90;;
58123;SDS011;46725;48.068;20.832;2022-11-20T15:21:43;69.75;;;31.05;;
58123;SDS011;46725;48.068;20.832;2022-11-20T15:24:09;57.03;;;29.20;;
58123;SDS011;46725;48.068;20.832;2022-11-20T15:26:35;65.88;;;31.42;;
58123;SDS011;46725;48.068;20.832;2022-11-20T15:29:05;77.90;;;36.53;;
58123;SDS011;46725;48.068;20.832;2022-11-20T15:31:32;89.70;;;43.85;;
58123;SDS011;46725;48.068;20.832;2022-11-20T15:33:58;98.60;;;44.55;;
58123;SDS011;46725;48.068;20.832;2022-11-20T15:36:24;96.18;;;44.30;;
58123;SDS011;46725;48.068;20.832;2022-11-20T15:38:50;91.65;;;43.78;;
58123;SDS011;46725;48.068;20.832;2022-11-20T15:41:16;95.10;;;46.80;;
58123;SDS011;46725;48.068;20.832;2022-11-20T15:43:42;97.68;;;47.83;;
58123;SDS011;46725;48.068;20.832;2022-11-20T15:46:09;111.35;;;52.38;;
58123;SDS011;46725;48.068;20.832;2022-11-20T15:48:48;117.90;;;59.30;;
58123;SDS011;46725;48.068;20.832;2022-11-20T15:51:25;134.13;;;56.95;;
58123;SDS011;46725;48.068;20.832;2022-11-20T15:53:52;138.40;;;56.15;;